createdAt,value
2023-03-16T00:00:48.246Z,2.23
2023-03-16T00:01:48.289Z,2.20
2023-03-16T00:02:48.258Z,2.17
2023-03-16T00:03:48.323Z,2.14
2023-03-16T00:04:48.228Z,2.10
2023-03-16T00:05:48.194Z,2.12
2023-03-16T00:06:48.192Z,2.10
2023-03-16T00:07:48.175Z,2.14
2023-03-16T00:08:48.193Z,2.17
2023-03-16T00:09:48.154Z,2.20
2023-03-16T00:10:48.154Z,2.20
2023-03-16T00:11:48.128Z,2.21
2023-03-16T00:12:48.116Z,2.23
2023-03-16T00:13:48.116Z,2.21
2023-03-16T00:14:48.099Z,2.24
2023-03-16T00:15:48.157Z,2.27
2023-03-16T00:16:48.145Z,2.28
2023-03-16T00:17:48.080Z,2.30
2023-03-16T00:18:48.156Z,2.31
2023-03-16T00:19:48.059Z,2.35
2023-03-16T00:20:48.028Z,2.34
2023-03-16T00:21:48.032Z,2.41
2023-03-16T00:22:48.016Z,2.38
2023-03-16T00:23:48.024Z,2.35
2023-03-16T00:24:48.009Z,2.35
2023-03-16T00:25:47.999Z,2.30
2023-03-16T00:26:48.044Z,2.27
2023-03-16T00:27:47.956Z,2.25
2023-03-16T00:28:47.947Z,2.28
2023-03-16T00:29:47.956Z,2.34
2023-03-16T00:30:47.912Z,2.36
2023-03-16T00:31:47.930Z,2.41
2023-03-16T00:32:48.000Z,2.41
2023-03-16T00:33:47.902Z,2.52
2023-03-16T00:34:47.883Z,2.49
2023-03-16T00:35:47.906Z,2.48
2023-03-16T00:36:47.890Z,2.45
2023-03-16T00:37:47.871Z,2.43
2023-03-16T00:38:47.854Z,2.48
2023-03-16T00:39:47.824Z,2.63
2023-03-16T00:40:47.810Z,2.64
2023-03-16T00:41:47.872Z,2.64
2023-03-16T00:42:47.801Z,2.69
2023-03-16T00:43:47.810Z,2.69
2023-03-16T00:44:47.772Z,2.74
2023-03-16T00:45:47.804Z,2.74
2023-03-16T00:46:47.751Z,2.78
2023-03-16T00:47:47.750Z,2.79
2023-03-16T00:48:47.737Z,2.79
2023-03-16T00:49:47.723Z,2.81
2023-03-16T00:50:47.713Z,2.87
2023-03-16T00:51:47.749Z,2.87
2023-03-16T00:52:47.681Z,2.87
2023-03-16T00:53:47.724Z,2.93
2023-03-16T00:54:47.735Z,2.90
2023-03-16T00:55:47.661Z,2.95
2023-03-16T00:56:47.710Z,2.95
2023-03-16T00:57:47.665Z,2.96
2023-03-16T00:58:47.629Z,2.99
2023-03-16T00:59:47.632Z,2.99
2023-03-16T01:00:47.672Z,2.96
2023-03-16T01:01:47.611Z,2.97
2023-03-16T01:02:47.624Z,2.97
2023-03-16T01:03:47.577Z,3.02
2023-03-16T01:04:47.561Z,3.02
2023-03-16T01:05:47.545Z,3.03
2023-03-16T01:06:47.576Z,3.06
2023-03-16T01:07:47.521Z,3.06
2023-03-16T01:08:47.529Z,3.08
2023-03-16T01:09:47.501Z,3.11
2023-03-16T01:10:47.500Z,3.14
2023-03-16T01:11:47.482Z,3.15
2023-03-16T01:12:47.463Z,3.14
2023-03-16T01:13:47.479Z,3.17
2023-03-16T01:14:47.466Z,3.17
2023-03-16T01:15:47.443Z,3.17
2023-03-16T01:16:47.509Z,3.23
2023-03-16T01:17:47.422Z,3.21
2023-03-16T01:18:47.410Z,3.18
2023-03-16T01:19:47.433Z,3.18
2023-03-16T01:20:47.381Z,3.15
2023-03-16T01:21:47.377Z,3.14
2023-03-16T01:22:47.386Z,3.11
2023-03-16T01:23:47.365Z,3.11
2023-03-16T01:24:47.345Z,3.13
2023-03-16T01:25:47.335Z,3.11
2023-03-16T01:26:47.320Z,3.14
2023-03-16T01:27:47.313Z,3.20
2023-03-16T01:28:47.316Z,3.20
2023-03-16T01:29:47.302Z,3.24
2023-03-16T01:30:47.310Z,3.21
2023-03-16T01:31:47.265Z,3.17
2023-03-16T01:32:47.308Z,3.17
2023-03-16T01:33:47.255Z,3.18
2023-03-16T01:34:47.234Z,3.20
2023-03-16T01:35:47.275Z,3.20
2023-03-16T01:36:47.212Z,3.23
2023-03-16T01:37:47.212Z,3.24
2023-03-16T01:38:47.218Z,3.26
2023-03-16T01:39:47.196Z,3.26
2023-03-16T01:40:47.171Z,3.23
2023-03-16T01:41:47.165Z,3.24
2023-03-16T01:42:47.153Z,3.24
2023-03-16T01:43:47.154Z,3.23
2023-03-16T01:44:47.135Z,3.26
2023-03-16T01:45:47.136Z,3.26
2023-03-16T01:46:47.124Z,3.26
2023-03-16T01:47:47.103Z,3.26
2023-03-16T01:48:47.097Z,3.24
2023-03-16T01:49:47.078Z,3.26
2023-03-16T01:50:47.076Z,3.26
2023-03-16T01:51:47.068Z,3.28
2023-03-16T01:52:47.055Z,3.26
2023-03-16T01:53:47.058Z,3.24
2023-03-16T01:54:47.026Z,3.21
2023-03-16T01:55:47.014Z,3.24
2023-03-16T01:56:47.006Z,3.24
2023-03-16T01:57:47.020Z,3.24
2023-03-16T01:58:47.001Z,3.23
2023-03-16T01:59:46.984Z,3.18
2023-03-16T02:00:46.955Z,3.15
2023-03-16T02:01:47.012Z,3.23
2023-03-16T02:02:46.947Z,3.24
2023-03-16T02:03:46.936Z,3.23
2023-03-16T02:04:46.973Z,3.20
2023-03-16T02:05:46.925Z,3.21
2023-03-16T02:06:46.896Z,3.24
2023-03-16T02:07:46.904Z,3.24
2023-03-16T02:08:46.886Z,3.26
2023-03-16T02:09:46.866Z,3.21
2023-03-16T02:10:46.857Z,3.21
2023-03-16T02:11:46.856Z,3.21
2023-03-16T02:12:46.839Z,3.21
2023-03-16T02:13:46.864Z,3.20
2023-03-16T02:14:46.817Z,3.21
2023-03-16T02:15:46.878Z,3.20
2023-03-16T02:16:46.790Z,3.18
2023-03-16T02:17:46.790Z,3.23
2023-03-16T02:18:46.785Z,3.24
2023-03-16T02:19:46.768Z,3.23
2023-03-16T02:20:46.758Z,3.23
2023-03-16T02:21:46.749Z,3.26
2023-03-16T02:22:46.731Z,3.24
2023-03-16T02:23:46.741Z,3.23
2023-03-16T02:24:46.709Z,3.20
2023-03-16T02:25:46.718Z,3.21
2023-03-16T02:26:46.698Z,3.28
2023-03-16T02:27:46.824Z,3.29
2023-03-16T02:28:46.687Z,3.24
2023-03-16T02:29:46.679Z,3.23
2023-03-16T02:30:46.674Z,3.24
2023-03-16T02:31:46.656Z,3.26
2023-03-16T02:32:46.627Z,3.28
2023-03-16T02:33:46.629Z,3.24
2023-03-16T02:34:46.604Z,3.24
2023-03-16T02:35:46.702Z,3.23
2023-03-16T02:36:46.600Z,3.23
2023-03-16T02:37:46.598Z,3.23
2023-03-16T02:38:46.578Z,3.20
2023-03-16T02:39:46.560Z,3.23
2023-03-16T02:40:46.542Z,3.20
2023-03-16T02:41:46.543Z,3.21
2023-03-16T02:42:46.519Z,3.21
2023-03-16T02:43:46.539Z,3.21
2023-03-16T02:44:46.501Z,3.24
2023-03-16T02:45:46.619Z,3.26
2023-03-16T02:46:46.585Z,3.26
2023-03-16T02:47:46.489Z,3.26
2023-03-16T02:48:46.490Z,3.24
2023-03-16T02:49:46.450Z,3.24
2023-03-16T02:50:46.440Z,3.23
2023-03-16T02:51:46.429Z,3.20
2023-03-16T02:52:46.419Z,3.20
2023-03-16T02:53:46.420Z,3.18
2023-03-16T02:54:46.392Z,3.18
2023-03-16T02:55:46.423Z,3.15
2023-03-16T02:56:46.381Z,3.17
2023-03-16T02:57:46.372Z,3.18
2023-03-16T02:58:46.362Z,3.20
2023-03-16T02:59:46.343Z,3.21
2023-03-16T03:00:46.336Z,3.23
2023-03-16T03:01:46.330Z,3.21
2023-03-16T03:02:46.387Z,3.20
2023-03-16T03:03:46.310Z,3.21
2023-03-16T03:04:46.324Z,3.20
2023-03-16T03:05:46.279Z,3.20
2023-03-16T03:06:46.263Z,3.14
2023-03-16T03:07:46.260Z,3.13
2023-03-16T03:08:46.259Z,3.11
2023-03-16T03:09:46.240Z,3.08
2023-03-16T03:10:46.220Z,3.06
2023-03-16T03:11:46.220Z,3.06
2023-03-16T03:12:46.199Z,3.08
2023-03-16T03:13:46.210Z,3.06
2023-03-16T03:14:46.178Z,3.06
2023-03-16T03:15:46.171Z,3.03
2023-03-16T03:16:46.372Z,3.10
2023-03-16T03:17:46.163Z,3.10
2023-03-16T03:18:46.150Z,3.08
2023-03-16T03:19:46.131Z,3.06
2023-03-16T03:20:46.124Z,3.06
2023-03-16T03:21:46.115Z,3.05
2023-03-16T03:22:46.113Z,3.08
2023-03-16T03:23:46.101Z,3.08
2023-03-16T03:24:46.081Z,3.06
2023-03-16T03:25:46.071Z,3.10
2023-03-16T03:26:46.053Z,3.06
2023-03-16T03:27:46.090Z,3.05
2023-03-16T03:28:46.087Z,3.03
2023-03-16T03:29:46.027Z,3.05
2023-03-16T03:30:46.021Z,3.03
2023-03-16T03:31:46.024Z,3.03
2023-03-16T03:32:46.064Z,3.02
2023-03-16T03:33:45.993Z,3.00
2023-03-16T03:34:45.995Z,2.99
2023-03-16T03:35:46.066Z,3.00
2023-03-16T03:36:45.945Z,3.02
2023-03-16T03:37:45.944Z,3.02
2023-03-16T03:38:45.963Z,3.03
2023-03-16T03:39:45.924Z,3.08
2023-03-16T03:40:45.905Z,3.05
2023-03-16T03:41:45.902Z,3.11
2023-03-16T03:42:45.892Z,3.11
2023-03-16T03:43:45.894Z,3.06
2023-03-16T03:44:45.861Z,3.10
2023-03-16T03:45:45.882Z,3.11
2023-03-16T03:46:45.972Z,3.05
2023-03-16T03:47:45.848Z,3.08
2023-03-16T03:48:45.832Z,3.08
2023-03-16T03:49:45.818Z,3.03
2023-03-16T03:50:45.803Z,3.03
2023-03-16T03:51:45.794Z,3.02
2023-03-16T03:52:45.782Z,3.03
2023-03-16T03:53:45.787Z,3.03
2023-03-16T03:54:45.773Z,3.05
2023-03-16T03:55:45.753Z,3.02
2023-03-16T03:56:45.743Z,3.02
2023-03-16T03:57:45.723Z,3.02
2023-03-16T03:58:45.975Z,3.03
2023-03-16T03:59:45.724Z,3.02
2023-03-16T04:00:45.698Z,3.05
2023-03-16T04:01:45.966Z,3.03
2023-03-16T04:02:45.810Z,3.10
2023-03-16T04:03:45.673Z,3.11
2023-03-16T04:04:45.648Z,3.10
2023-03-16T04:05:45.642Z,3.10
2023-03-16T04:06:45.635Z,3.11
2023-03-16T04:07:45.637Z,3.10
2023-03-16T04:08:45.635Z,3.08
2023-03-16T04:09:45.608Z,3.06
2023-03-16T04:10:45.606Z,3.10
2023-03-16T04:11:45.586Z,3.11
2023-03-16T04:12:45.554Z,3.13
2023-03-16T04:13:45.573Z,3.14
2023-03-16T04:14:45.587Z,3.14
2023-03-16T04:15:45.535Z,3.14
2023-03-16T04:16:45.611Z,3.15
2023-03-16T04:17:45.524Z,3.14
2023-03-16T04:18:45.508Z,3.13
2023-03-16T04:19:45.513Z,3.10
2023-03-16T04:20:45.487Z,3.10
2023-03-16T04:21:45.484Z,3.11
2023-03-16T04:22:45.461Z,3.11
2023-03-16T04:23:45.483Z,3.14
2023-03-16T04:24:45.433Z,3.14
2023-03-16T04:25:45.451Z,3.14
2023-03-16T04:26:45.429Z,3.13
2023-03-16T04:27:45.404Z,3.15
2023-03-16T04:28:45.442Z,3.17
2023-03-16T04:29:45.395Z,3.21
2023-03-16T04:30:45.388Z,3.24
2023-03-16T04:31:45.386Z,3.28
2023-03-16T04:32:45.416Z,3.24
2023-03-16T04:33:45.375Z,3.24
2023-03-16T04:34:45.341Z,3.21
2023-03-16T04:35:45.334Z,3.18
2023-03-16T04:36:45.319Z,3.18
2023-03-16T04:37:45.306Z,3.18
2023-03-16T04:38:45.316Z,3.26
2023-03-16T04:39:45.298Z,3.26
2023-03-16T04:40:45.298Z,3.26
2023-03-16T04:41:45.276Z,3.28
2023-03-16T04:42:45.259Z,3.26
2023-03-16T04:43:45.265Z,3.26
2023-03-16T04:44:45.244Z,3.23
2023-03-16T04:45:45.374Z,3.21
2023-03-16T04:46:45.298Z,3.26
2023-03-16T04:47:45.196Z,3.29
2023-03-16T04:48:45.179Z,3.29
2023-03-16T04:49:45.193Z,3.35
2023-03-16T04:50:45.158Z,3.39
2023-03-16T04:51:45.184Z,3.36
2023-03-16T04:52:45.147Z,3.42
2023-03-16T04:53:45.168Z,3.42
2023-03-16T04:54:45.117Z,3.42
2023-03-16T04:55:45.188Z,3.43
2023-03-16T04:56:45.111Z,3.43
2023-03-16T04:57:45.097Z,3.40
2023-03-16T04:58:45.113Z,3.42
2023-03-16T04:59:45.072Z,3.48
2023-03-16T05:00:45.059Z,3.50
2023-03-16T05:01:45.091Z,3.48
2023-03-16T05:02:45.042Z,3.50
2023-03-16T05:03:45.032Z,3.52
2023-03-16T05:04:45.028Z,3.50
2023-03-16T05:05:45.069Z,3.47
2023-03-16T05:06:45.000Z,3.51
2023-03-16T05:07:45.003Z,3.50
2023-03-16T05:08:44.969Z,3.51
2023-03-16T05:09:44.970Z,3.51
2023-03-16T05:10:44.963Z,3.51
2023-03-16T05:11:44.968Z,3.50
2023-03-16T05:12:44.939Z,3.48
2023-03-16T05:13:44.969Z,3.47
2023-03-16T05:14:44.909Z,3.52
2023-03-16T05:15:44.969Z,3.55
2023-03-16T05:16:44.894Z,3.57
2023-03-16T05:17:44.890Z,3.57
2023-03-16T05:18:44.876Z,3.58
2023-03-16T05:19:44.868Z,3.58
2023-03-16T05:20:44.840Z,3.60
2023-03-16T05:21:44.849Z,3.60
2023-03-16T05:22:44.818Z,3.61
2023-03-16T05:23:44.830Z,3.61
2023-03-16T05:24:44.799Z,3.60
2023-03-16T05:25:47.106Z,3.58
2023-03-16T05:26:44.793Z,3.60
2023-03-16T05:27:44.779Z,3.61
2023-03-16T05:28:44.791Z,3.65
2023-03-16T05:29:44.759Z,3.61
2023-03-16T05:30:44.743Z,3.62
2023-03-16T05:31:44.749Z,3.66
2023-03-16T05:32:44.754Z,3.61
2023-03-16T05:33:44.762Z,3.61
2023-03-16T05:34:44.700Z,3.66
2023-03-16T05:35:44.748Z,3.68
2023-03-16T05:36:44.670Z,3.66
2023-03-16T05:37:44.682Z,3.69
2023-03-16T05:38:44.671Z,3.68
2023-03-16T05:39:44.642Z,3.65
2023-03-16T05:40:44.633Z,3.69
2023-03-16T05:41:44.623Z,3.72
2023-03-16T05:42:44.603Z,3.70
2023-03-16T05:43:44.613Z,3.72
2023-03-16T05:44:44.595Z,3.73
2023-03-16T05:45:44.580Z,3.73
2023-03-16T05:46:44.608Z,3.73
2023-03-16T05:47:44.568Z,3.72
2023-03-16T05:48:44.556Z,3.69
2023-03-16T05:49:44.545Z,3.69
2023-03-16T05:50:44.526Z,3.70
2023-03-16T05:51:44.514Z,3.73
2023-03-16T05:52:44.496Z,3.70
2023-03-16T05:53:44.546Z,3.72
2023-03-16T05:54:44.486Z,3.73
2023-03-16T05:55:44.484Z,3.73
2023-03-16T05:56:44.499Z,3.70
2023-03-16T05:57:44.536Z,3.69
2023-03-16T05:58:44.512Z,3.68
2023-03-16T05:59:44.440Z,3.72
2023-03-16T06:00:44.420Z,3.75
2023-03-16T06:01:44.450Z,3.75
2023-03-16T06:02:44.452Z,3.73
2023-03-16T06:03:44.597Z,3.72
2023-03-16T06:04:44.380Z,3.70
2023-03-16T06:05:44.388Z,3.73
2023-03-16T06:06:44.376Z,3.75
2023-03-16T06:07:44.379Z,3.75
2023-03-16T06:08:44.379Z,3.70
2023-03-16T06:09:44.346Z,3.70
2023-03-16T06:10:44.315Z,3.72
2023-03-16T06:11:44.332Z,3.70
2023-03-16T06:12:44.284Z,3.70
2023-03-16T06:13:44.318Z,3.69
2023-03-16T06:14:44.270Z,3.69
2023-03-16T06:15:44.253Z,3.69
2023-03-16T06:16:44.355Z,3.69
2023-03-16T06:17:44.243Z,3.70
2023-03-16T06:18:44.233Z,3.75
2023-03-16T06:19:44.216Z,3.73
2023-03-16T06:20:44.198Z,3.76
2023-03-16T06:21:44.221Z,3.76
2023-03-16T06:22:44.177Z,3.76
2023-03-16T06:23:44.197Z,3.76
2023-03-16T06:24:44.146Z,3.75
2023-03-16T06:25:44.147Z,3.76
2023-03-16T06:26:44.157Z,3.80
2023-03-16T06:27:44.134Z,3.80
2023-03-16T06:28:44.118Z,3.83
2023-03-16T06:29:44.105Z,3.83
2023-03-16T06:30:44.091Z,3.83
2023-03-16T06:31:44.135Z,3.84
2023-03-16T06:32:44.157Z,3.84
2023-03-16T06:33:44.049Z,3.90
2023-03-16T06:34:44.049Z,3.94
2023-03-16T06:35:44.106Z,3.94
2023-03-16T06:36:44.030Z,3.97
2023-03-16T06:37:44.011Z,4.00
2023-03-16T06:38:44.008Z,4.05
2023-03-16T06:39:43.989Z,4.06
2023-03-16T06:40:43.981Z,4.09
2023-03-16T06:41:43.982Z,4.11
2023-03-16T06:42:46.314Z,4.16
2023-03-16T06:43:43.961Z,4.18
2023-03-16T06:44:43.940Z,4.22
2023-03-16T06:45:43.990Z,4.24
2023-03-16T06:46:43.919Z,4.24
2023-03-16T06:47:43.905Z,4.26
2023-03-16T06:48:43.904Z,4.27
2023-03-16T06:49:43.883Z,4.29
2023-03-16T06:50:43.877Z,4.30
2023-03-16T06:51:43.862Z,4.30
2023-03-16T06:52:43.882Z,4.33
2023-03-16T06:53:43.852Z,4.36
2023-03-16T06:54:43.828Z,4.37
2023-03-16T06:55:43.817Z,4.37
2023-03-16T06:56:46.194Z,4.41
2023-03-16T06:57:43.794Z,4.40
2023-03-16T06:58:43.943Z,4.42
2023-03-16T06:59:43.773Z,4.44
2023-03-16T07:00:43.798Z,4.44
2023-03-16T07:01:43.751Z,4.47
2023-03-16T07:02:43.780Z,4.47
2023-03-16T07:03:43.753Z,4.51
2023-03-16T07:04:43.720Z,4.51
2023-03-16T07:05:43.702Z,4.51
2023-03-16T07:06:43.701Z,4.52
2023-03-16T07:07:43.679Z,4.55
2023-03-16T07:08:43.693Z,4.58
2023-03-16T07:09:43.713Z,4.58
2023-03-16T07:10:43.652Z,4.59
2023-03-16T07:11:43.645Z,4.62
2023-03-16T07:12:43.633Z,4.63
2023-03-16T07:13:43.631Z,4.65
2023-03-16T07:14:43.611Z,4.67
2023-03-16T07:15:43.601Z,4.70
2023-03-16T07:16:43.687Z,4.72
2023-03-16T07:17:43.571Z,4.77
2023-03-16T07:18:43.576Z,4.80
2023-03-16T07:19:43.623Z,4.84
2023-03-16T07:20:43.543Z,4.88
2023-03-16T07:21:43.527Z,4.89
2023-03-16T07:22:43.529Z,4.94
2023-03-16T07:23:43.523Z,5.02
2023-03-16T07:24:43.501Z,5.03
2023-03-16T07:25:43.491Z,5.07
2023-03-16T07:26:43.488Z,5.13
2023-03-16T07:27:43.470Z,5.15
2023-03-16T07:28:43.490Z,5.18
2023-03-16T07:29:43.448Z,5.22
2023-03-16T07:30:53.339Z,5.24
2023-03-16T07:31:44.490Z,5.27
2023-03-16T07:32:43.462Z,5.31
2023-03-16T07:33:43.404Z,5.31
2023-03-16T07:34:43.408Z,5.36
2023-03-16T07:35:43.440Z,5.40
2023-03-16T07:36:43.371Z,5.48
2023-03-16T07:37:43.373Z,5.49
2023-03-16T07:38:43.355Z,5.54
2023-03-16T07:39:43.331Z,5.60
2023-03-16T07:40:43.341Z,5.61
2023-03-16T07:41:43.325Z,5.61
2023-03-16T07:42:43.310Z,5.67
2023-03-16T07:43:43.297Z,5.67
2023-03-16T07:44:43.285Z,5.71
2023-03-16T07:45:43.302Z,5.75
2023-03-16T07:46:43.273Z,5.82
2023-03-16T07:47:43.245Z,5.85
2023-03-16T07:48:43.271Z,5.89
2023-03-16T07:49:43.223Z,5.91
2023-03-16T07:50:43.224Z,5.94
2023-03-16T07:51:43.208Z,5.94
2023-03-16T07:52:43.191Z,5.94
2023-03-16T07:53:43.291Z,5.96
2023-03-16T07:54:43.164Z,5.93
2023-03-16T07:55:43.182Z,5.93
2023-03-16T07:56:49.340Z,5.90
2023-03-16T07:57:44.133Z,5.91
2023-03-16T07:58:43.134Z,5.93
2023-03-16T07:59:43.114Z,5.91
2023-03-16T08:00:43.109Z,5.93
2023-03-16T08:01:43.107Z,5.94
2023-03-16T08:02:43.142Z,5.99
2023-03-16T08:03:43.286Z,6.00
2023-03-16T08:04:43.054Z,6.04
2023-03-16T08:05:43.049Z,6.06
2023-03-16T08:06:43.026Z,6.06
2023-03-16T08:07:43.025Z,6.11
2023-03-16T08:08:43.054Z,6.12
2023-03-16T08:09:43.007Z,6.11
2023-03-16T08:10:42.987Z,6.15
2023-03-16T08:11:42.987Z,6.18
2023-03-16T08:12:43.035Z,6.17
2023-03-16T08:13:42.978Z,6.17
2023-03-16T08:14:42.952Z,6.19
2023-03-16T08:15:42.963Z,6.19
2023-03-16T08:16:42.919Z,6.22
2023-03-16T08:17:42.931Z,6.28
2023-03-16T08:18:42.899Z,6.28
2023-03-16T08:19:42.904Z,6.31
2023-03-16T08:20:42.880Z,6.34
2023-03-16T08:22:00.446Z,6.37
2023-03-16T08:22:43.881Z,6.43
2023-03-16T08:23:42.870Z,6.43
2023-03-16T08:24:42.851Z,6.40
2023-03-16T08:25:42.851Z,6.41
2023-03-16T08:26:42.820Z,6.38
2023-03-16T08:27:43.147Z,6.44
2023-03-16T08:28:42.871Z,6.51
2023-03-16T08:29:42.789Z,6.56
2023-03-16T08:30:42.773Z,6.56
2023-03-16T08:31:42.893Z,6.55
2023-03-16T08:32:42.782Z,6.58
2023-03-16T08:33:42.772Z,6.67
2023-03-16T08:34:42.723Z,6.67
2023-03-16T08:35:42.741Z,6.69
2023-03-16T08:36:42.708Z,6.76
2023-03-16T08:37:42.701Z,6.79
2023-03-16T08:38:44.141Z,6.80
2023-03-16T08:39:42.674Z,6.87
2023-03-16T08:40:42.666Z,6.91
2023-03-16T08:41:42.667Z,6.92
2023-03-16T08:42:42.635Z,7.02
2023-03-16T08:43:42.656Z,7.03
2023-03-16T08:44:42.621Z,7.05
2023-03-16T08:45:42.607Z,7.06
2023-03-16T08:46:42.771Z,7.10
2023-03-16T08:47:42.615Z,7.10
2023-03-16T08:48:42.584Z,7.09
2023-03-16T08:49:42.567Z,7.15
2023-03-16T08:50:42.546Z,7.15
2023-03-16T08:51:44.524Z,7.13
2023-03-16T08:52:42.551Z,7.15
2023-03-16T08:53:42.538Z,7.10
2023-03-16T08:54:49.675Z,7.12
2023-03-16T08:55:43.499Z,7.12
2023-03-16T08:56:42.486Z,7.20
2023-03-16T08:57:42.476Z,7.20
2023-03-16T08:58:42.480Z,7.24
2023-03-16T08:59:42.456Z,7.13
2023-03-16T09:00:43.894Z,6.97
2023-03-16T09:01:42.466Z,6.97
2023-03-16T09:02:42.426Z,7.02
2023-03-16T09:03:42.568Z,7.02
2023-03-16T09:04:42.422Z,6.99
2023-03-16T09:05:42.422Z,6.95
2023-03-16T09:06:42.367Z,6.95
2023-03-16T09:07:42.398Z,6.98
2023-03-16T09:08:42.387Z,6.98
2023-03-16T09:09:42.349Z,6.92
2023-03-16T09:10:42.353Z,6.97
2023-03-16T09:11:42.332Z,6.95
2023-03-16T09:12:42.306Z,6.99
2023-03-16T09:13:42.320Z,7.03
2023-03-16T09:14:42.301Z,7.06
2023-03-16T09:15:42.286Z,7.10
2023-03-16T09:16:42.293Z,7.16
2023-03-16T09:17:42.286Z,7.20
2023-03-16T09:18:42.247Z,7.17
2023-03-16T09:19:51.537Z,7.27
2023-03-16T09:20:43.217Z,7.31
2023-03-16T09:21:42.209Z,7.37
2023-03-16T09:22:42.203Z,7.40
2023-03-16T09:23:42.208Z,7.43
2023-03-16T09:24:42.170Z,7.48
2023-03-16T09:25:42.179Z,7.48
2023-03-16T09:26:42.180Z,7.50
2023-03-16T09:27:42.149Z,7.46
2023-03-16T09:28:42.309Z,7.50
2023-03-16T09:29:42.119Z,7.50
2023-03-16T09:30:42.109Z,7.43
2023-03-16T09:31:42.151Z,7.35
2023-03-16T09:32:42.119Z,7.42
2023-03-16T09:33:42.130Z,7.45
2023-03-16T11:45:45.823Z,12.12
2023-03-16T11:46:45.741Z,12.28
2023-03-16T11:47:45.739Z,12.39
2023-03-16T11:48:45.726Z,12.46
2023-03-16T11:49:45.723Z,12.31
2023-03-16T11:50:45.786Z,12.21
2023-03-16T11:51:45.691Z,12.27
2023-03-16T11:52:45.681Z,12.45
2023-03-16T11:53:45.671Z,12.28
2023-03-16T11:54:45.657Z,12.28
2023-03-16T11:55:45.660Z,12.39
2023-03-16T11:56:45.630Z,12.70
2023-03-16T11:57:45.625Z,12.95
2023-03-16T11:58:45.606Z,12.87
2023-03-16T11:59:51.974Z,12.95
2023-03-16T12:00:46.586Z,13.08
2023-03-16T12:01:59.798Z,13.14
2023-03-16T12:02:46.692Z,13.15
2023-03-16T12:03:45.592Z,12.95
2023-03-16T12:04:45.540Z,12.89
2023-03-16T12:05:46.043Z,12.75
2023-03-16T12:06:45.520Z,12.65
2023-03-16T12:07:45.537Z,12.37
2023-03-16T12:08:45.499Z,12.37
2023-03-16T12:09:45.514Z,12.52
2023-03-16T12:10:45.498Z,12.75
2023-03-16T12:11:45.474Z,12.87
2023-03-16T12:12:45.447Z,13.04
2023-03-16T12:13:45.448Z,12.96
2023-03-16T12:14:45.440Z,13.00
2023-03-16T12:15:45.469Z,12.85
2023-03-16T12:16:49.624Z,13.01
2023-03-16T12:17:45.428Z,12.87
2023-03-16T12:18:45.450Z,12.92
2023-03-16T12:19:45.414Z,12.86
2023-03-16T12:20:45.362Z,12.78
2023-03-16T12:21:45.401Z,12.57
2023-03-16T12:22:45.362Z,12.64
2023-03-16T12:23:45.330Z,12.92
2023-03-16T12:24:45.334Z,13.08
2023-03-16T12:25:45.318Z,13.12
2023-03-16T12:26:45.308Z,13.05
2023-03-16T12:27:45.297Z,13.04
2023-03-16T12:28:45.316Z,13.00
2023-03-16T12:29:45.277Z,13.11
2023-03-16T12:30:45.254Z,13.23
2023-03-16T12:31:45.296Z,13.15
2023-03-16T12:32:45.294Z,13.12
2023-03-16T12:33:45.251Z,13.08
2023-03-16T12:34:45.217Z,13.10
2023-03-16T12:35:45.251Z,12.96
2023-03-16T12:36:45.194Z,12.71
2023-03-16T12:37:45.246Z,12.64
2023-03-16T12:38:45.168Z,12.45
2023-03-16T12:39:45.150Z,12.46
2023-03-16T12:40:45.163Z,12.46
2023-03-16T12:41:45.132Z,12.52
2023-03-16T12:42:45.128Z,12.52
2023-03-16T12:43:45.140Z,12.60
2023-03-16T12:44:45.132Z,12.62
2023-03-16T12:45:45.148Z,12.64
2023-03-16T12:46:47.800Z,12.75
2023-03-16T12:47:45.064Z,12.75
2023-03-16T12:48:45.072Z,12.71
2023-03-16T12:49:45.045Z,12.71
2023-03-16T12:50:45.104Z,12.62
2023-03-16T12:51:45.020Z,12.65
2023-03-16T12:52:45.048Z,12.64
2023-03-16T12:53:45.011Z,12.42
2023-03-16T12:54:45.003Z,12.32
2023-03-16T12:55:45.019Z,12.24
2023-03-16T12:56:44.997Z,12.16
2023-03-16T12:57:44.955Z,12.16
2023-03-16T12:58:44.952Z,12.17
2023-03-16T12:59:44.934Z,12.23
2023-03-16T13:00:44.960Z,12.23
2023-03-16T13:01:44.907Z,12.32
2023-03-16T13:02:44.906Z,12.24
2023-03-16T13:03:44.903Z,12.29
2023-03-16T13:04:44.980Z,12.32
2023-03-16T13:05:44.880Z,12.31
2023-03-16T13:06:44.858Z,12.19
2023-03-16T13:07:44.848Z,12.20
2023-03-16T13:08:44.931Z,12.31
2023-03-16T13:09:44.850Z,12.35
2023-03-16T13:10:44.834Z,12.39
2023-03-16T13:11:44.823Z,12.45
2023-03-16T13:12:44.804Z,12.39
2023-03-16T13:13:44.818Z,12.38
2023-03-16T13:14:44.806Z,12.34
2023-03-16T13:15:44.772Z,12.29
2023-03-16T13:16:44.868Z,12.34
2023-03-16T13:17:44.750Z,12.45
2023-03-16T13:18:44.778Z,12.50
2023-03-16T13:19:44.711Z,12.54
2023-03-16T13:20:44.737Z,12.52
2023-03-16T13:21:44.713Z,12.47
2023-03-16T13:22:44.687Z,12.38
2023-03-16T13:23:44.687Z,12.37
2023-03-16T13:24:44.659Z,12.39
2023-03-16T13:25:44.688Z,12.47
2023-03-16T13:26:44.643Z,12.42
2023-03-16T13:27:44.645Z,12.49
2023-03-16T13:28:44.642Z,12.49
2023-03-16T13:29:44.601Z,12.50
2023-03-16T13:30:44.633Z,12.64
2023-03-16T13:31:44.635Z,12.59
2023-03-16T13:32:44.604Z,12.62
2023-03-16T13:33:44.572Z,12.57
2023-03-16T13:34:44.554Z,12.57
2023-03-16T13:35:44.538Z,12.62
2023-03-16T13:36:44.530Z,12.67
2023-03-16T13:37:44.512Z,12.53
2023-03-16T13:38:44.528Z,12.47
2023-03-16T13:39:44.487Z,12.46
2023-03-16T13:40:44.483Z,12.52
2023-03-16T13:41:44.490Z,12.59
2023-03-16T13:42:44.454Z,12.65
2023-03-16T13:43:44.471Z,12.71
2023-03-16T13:44:44.458Z,12.72
2023-03-16T13:45:44.496Z,12.71
2023-03-16T13:46:44.418Z,12.72
2023-03-16T13:47:44.405Z,12.70
2023-03-16T13:48:44.408Z,12.70
2023-03-16T13:49:44.399Z,12.72
2023-03-16T13:50:44.395Z,12.65
2023-03-16T13:51:44.369Z,12.60
2023-03-16T13:52:44.516Z,12.62
2023-03-16T13:53:44.331Z,12.54
2023-03-16T13:54:44.430Z,12.54
2023-03-16T13:55:44.321Z,12.64
2023-03-16T13:56:44.311Z,12.70
2023-03-16T13:57:44.305Z,12.79
2023-03-16T13:58:44.291Z,12.86
2023-03-16T13:59:44.271Z,12.89
2023-03-16T14:00:44.342Z,12.96
2023-03-16T14:01:44.319Z,12.95
2023-03-16T14:02:44.306Z,12.97
2023-03-16T14:03:44.222Z,13.05
2023-03-16T14:04:44.213Z,13.23
2023-03-16T14:05:44.213Z,13.29
2023-03-16T14:06:44.199Z,13.39
2023-03-16T14:07:44.197Z,13.52
2023-03-16T14:08:44.172Z,13.52
2023-03-16T14:09:44.155Z,13.42
2023-03-16T14:10:44.184Z,13.32
2023-03-16T14:11:44.136Z,13.32
2023-03-16T14:12:44.127Z,13.45
2023-03-16T14:13:44.120Z,13.49
2023-03-16T14:14:44.110Z,13.41
2023-03-16T14:15:44.184Z,13.33
2023-03-16T14:16:44.164Z,13.46
2023-03-16T14:17:44.070Z,13.42
2023-03-16T14:18:44.072Z,13.48
2023-03-16T14:19:44.061Z,13.45
2023-03-16T14:20:44.064Z,13.42
2023-03-16T14:21:44.042Z,13.38
2023-03-16T14:22:44.033Z,13.39
2023-03-16T14:23:44.020Z,13.36
2023-03-16T14:24:44.004Z,13.33
2023-03-16T14:25:44.106Z,13.30
2023-03-16T14:26:43.991Z,13.12
2023-03-16T14:27:43.972Z,13.05
2023-03-16T14:28:43.966Z,13.03
2023-03-16T14:29:43.949Z,13.01
2023-03-16T14:30:44.027Z,13.08
2023-03-16T14:31:43.927Z,13.03
2023-03-16T14:32:43.967Z,12.92
2023-03-16T14:33:43.911Z,12.92
2023-03-16T14:34:43.898Z,13.01
2023-03-16T14:35:43.992Z,13.03
2023-03-16T14:36:43.880Z,13.12
2023-03-16T14:37:43.881Z,13.12
2023-03-16T14:38:43.859Z,13.15
2023-03-16T14:39:43.864Z,13.08
2023-03-16T14:40:43.859Z,13.00
2023-03-16T14:41:43.819Z,13.07
2023-03-16T14:42:43.810Z,13.08
2023-03-16T14:43:43.800Z,13.10
2023-03-16T14:44:43.813Z,13.08
2023-03-16T14:45:43.790Z,12.96
2023-03-16T14:46:43.800Z,12.93
2023-03-16T14:47:43.766Z,12.90
2023-03-16T14:48:43.737Z,12.79
2023-03-16T14:49:43.764Z,12.77
2023-03-16T14:50:43.764Z,12.83
2023-03-16T14:51:43.706Z,12.77
2023-03-16T14:52:43.705Z,12.64
2023-03-16T14:53:43.684Z,12.53
2023-03-16T14:54:43.675Z,12.54
2023-03-16T14:55:43.705Z,12.64
2023-03-16T14:56:43.648Z,12.65
2023-03-16T14:57:43.654Z,12.68
2023-03-16T14:58:43.631Z,12.70
2023-03-16T14:59:43.629Z,12.65
2023-03-16T15:00:52.823Z,12.60
2023-03-16T15:01:44.785Z,12.62
2023-03-16T15:02:43.602Z,12.70
2023-03-16T15:03:43.572Z,12.70
2023-03-16T15:04:43.567Z,12.74
2023-03-16T15:05:43.566Z,12.65
2023-03-16T15:06:43.560Z,12.67
2023-03-16T15:07:43.552Z,12.68
2023-03-16T15:08:43.552Z,12.72
2023-03-16T15:09:43.516Z,12.72
2023-03-16T15:10:43.499Z,12.65
2023-03-16T15:11:43.529Z,12.68
2023-03-16T15:12:43.470Z,12.78
2023-03-16T15:13:44.522Z,12.83
2023-03-16T15:14:43.450Z,12.89
2023-03-16T15:15:43.493Z,12.85
2023-03-16T15:16:43.442Z,12.95
2023-03-16T15:17:43.423Z,13.07
2023-03-16T15:18:43.409Z,13.14
2023-03-16T15:19:43.423Z,13.15
2023-03-16T15:20:43.432Z,13.17
2023-03-16T15:21:43.394Z,13.08
2023-03-16T15:22:43.378Z,13.05